ADDS METAR Data INFO

IDs: Format: Raw Decoded Include TAF

Data at: 2011 UTC 19 Dec 2014

Region: TOP
KATL 191952Z 32004KT 10SM BKN200 12/02 A3010 RMK AO2 SLP194 T01220017

KBOS 191954Z 30010KT 10SM SCT035 SCT055 02/M06 A2998 RMK AO2 SLP150 T00171056

KBWI 191954Z 34011G15KT 10SM BKN039 05/M05 A3012 RMK AO2 SLP201 T00501050

KCLE 191951Z 35005KT 10SM OVC027 M01/M06 A3026 RMK AO2 SLP254 T10061056 $

KCLT 191952Z 36003KT 10SM OVC230 13/M02 A3011 RMK AO2 SLP196 T01281022

KCVG 191952Z 00000KT 9SM OVC023 M01/M07 A3025 RMK AO2 SLP251 T10111072

KDCA 191952Z 33011KT 10SM BKN035 06/M05 A3016 RMK AO2 SLP214 T00561050

KDEN 191953Z 19005KT 10SM FEW080 FEW120 FEW220 07/M12 A3001 RMK AO2 SLP162 T00721117

KDFW 191953Z 02006KT 8SM OVC010 09/07 A3014 RMK AO2 SLP206 T00940067

KDTW 191953Z 00000KT 10SM OVC020 M02/M07 A3026 RMK AO2 SLP255 T10171067

KEWR 191951Z 32014G23KT 10SM SCT041 03/M06 A3006 RMK AO2 PK WND 31026/1934 SLP179 T00281056

KFLL 191953Z 10009KT 10SM FEW040 24/17 A3003 RMK AO2 SLP167 T02390167

KIAD 191952Z 30013KT 10SM BKN037 03/M06 A3015 RMK AO2 SLP212 T00281056

KIAH 191953Z 03012KT 7SM -RA BKN008 OVC022 12/11 A3003 RMK AO2 SLP171 P0002 T01220106

KJFK 191951Z 32014KT 10SM FEW039 04/M07 A3005 RMK AO2 SLP177 T00441067

KLAS 191956Z 00000KT 10SM FEW080 FEW250 12/03 A3017 RMK AO2 SLP214 T01170028

KLAX 191953Z 27007KT 10SM FEW018 SCT110 SCT160 BKN220 17/09 A3021 RMK AO2 SLP230 T01720089

KLGA 191951Z 30016G20KT 10SM FEW040 03/M06 A3005 RMK AO2 SLP174 T00281061

KMCO 191953Z 36006KT 10SM SCT250 23/03 A3007 RMK AO2 SLP180 T02280028

KMDW 191953Z 00000KT 10SM OVC026 01/M05 A3026 RMK AO2 SLP259 T00111050

KMEM 191954Z 03005KT 10SM OVC037 07/01 A3021 RMK AO2 SLP230 T00720011 $

KMIA 191953Z 12009KT 10SM SCT033 24/16 A3003 RMK AO2 SLP169 T02440156

KMSP 191953Z 13008KT 8SM OVC013 M03/M06 A3020 RMK AO2 SLP240 T10281056

KORD 191951Z 06005KT 10SM FEW019 OVC028 M01/M06 A3025 RMK AO2 SLP252 T10061061

KPDX 191953Z 19011G17KT 10SM SCT015 SCT048 10/07 A3003 RMK AO2 SLP169 T01000067

KPHL 191954Z 33013KT 10SM FEW040 06/M06 A3009 RMK AO2 SLP187 T00561056

KPHX 191951Z 08004KT 10SM BKN250 16/04 A3017 RMK AO2 SLP211 T01560039

KPIT 191951Z 31008KT 10SM OVC029 M01/M05 A3020 RMK AO2 SLP248 BINOVC T10061050

KSAN 191951Z 30004KT 10SM FEW250 19/08 A3019 RMK AO2 SLP223 T01940078

KSEA 191953Z 21011G18KT 10SM SCT035 BKN048 10/05 A2995 RMK AO2 SLP151 T01000050

KSFO 191956Z 12004KT 10SM FEW009 BKN022 OVC027 14/14 A3013 RMK AO2 RAE42 SLP202 P0004 T01440139

KSLC 191953Z 17011KT 10SM FEW060 BKN085 BKN200 07/M03 A3014 RMK AO2 SLP209 VIRGA DSNT SW-W AND NW SCSL DSNT NE-E T00671028

KSTL 191951Z 00000KT 6SM HZ SCT023 OVC037 03/M03 A3030 RMK AO2 SLP268 T00331028

KTPA 191953Z 23004KT 10SM BKN240 21/11 A3006 RMK AO2 SLP179 T02060106


Page loaded:  20:11 UTC  |   12:11 PM Pacific  |   01:11 PM Mountain  |   02:11 PM Central  |   03:11 PM Eastern

 

ADVISORIES

FORECASTS

FORECASTS

OBSERVATIONS

USER TOOLS

ABOUT US